sensor_id;sensor_type;location;lat;lon;timestamp;pressure;altitude;pressure_sealevel;temperature
10869;BMP180;62667;48.698;8.762;2023-08-12T00:01:17;96407.00;;;19.90
10869;BMP180;62667;48.698;8.762;2023-08-12T00:03:47;96406.00;;;19.80
10869;BMP180;62667;48.698;8.762;2023-08-12T00:06:16;96405.00;;;19.70
10869;BMP180;62667;48.698;8.762;2023-08-12T00:08:43;96405.00;;;19.60
10869;BMP180;62667;48.698;8.762;2023-08-12T00:11:11;96405.00;;;19.70
10869;BMP180;62667;48.698;8.762;2023-08-12T00:13:38;96404.00;;;19.80
10869;BMP180;62667;48.698;8.762;2023-08-12T00:16:05;96400.00;;;19.80
10869;BMP180;62667;48.698;8.762;2023-08-12T00:18:33;96396.00;;;19.90
10869;BMP180;62667;48.698;8.762;2023-08-12T00:21:07;96389.00;;;19.80
10869;BMP180;62667;48.698;8.762;2023-08-12T00:23:39;96389.00;;;19.60
10869;BMP180;62667;48.698;8.762;2023-08-12T00:26:07;96387.00;;;19.40
10869;BMP180;62667;48.698;8.762;2023-08-12T00:28:34;96377.00;;;19.40
10869;BMP180;62667;48.698;8.762;2023-08-12T00:31:02;96378.00;;;19.40
10869;BMP180;62667;48.698;8.762;2023-08-12T00:33:30;96372.00;;;19.40
10869;BMP180;62667;48.698;8.762;2023-08-12T00:35:57;96382.00;;;19.50
10869;BMP180;62667;48.698;8.762;2023-08-12T00:38:25;96375.00;;;19.40
10869;BMP180;62667;48.698;8.762;2023-08-12T00:40:53;96376.00;;;19.40
10869;BMP180;62667;48.698;8.762;2023-08-12T00:43:21;96378.00;;;19.40
10869;BMP180;62667;48.698;8.762;2023-08-12T00:45:48;96385.00;;;19.50
10869;BMP180;62667;48.698;8.762;2023-08-12T00:48:17;96377.00;;;19.40
10869;BMP180;62667;48.698;8.762;2023-08-12T00:50:45;96384.00;;;19.50
10869;BMP180;62667;48.698;8.762;2023-08-12T00:53:13;96372.00;;;19.50
10869;BMP180;62667;48.698;8.762;2023-08-12T00:55:42;96377.00;;;19.50
10869;BMP180;62667;48.698;8.762;2023-08-12T00:58:11;96371.00;;;19.50
10869;BMP180;62667;48.698;8.762;2023-08-12T01:00:38;96373.00;;;19.50
10869;BMP180;62667;48.698;8.762;2023-08-12T01:03:06;96363.00;;;19.50
10869;BMP180;62667;48.698;8.762;2023-08-12T01:05:34;96365.00;;;19.60
10869;BMP180;62667;48.698;8.762;2023-08-12T01:08:01;96350.00;;;19.60
10869;BMP180;62667;48.698;8.762;2023-08-12T01:10:35;96349.00;;;19.50
10869;BMP180;62667;48.698;8.762;2023-08-12T01:13:13;96354.00;;;19.50
10869;BMP180;62667;48.698;8.762;2023-08-12T01:15:44;96352.00;;;19.20
10869;BMP180;62667;48.698;8.762;2023-08-12T01:18:13;96348.00;;;19.00
10869;BMP180;62667;48.698;8.762;2023-08-12T01:20:41;96341.00;;;18.90
10869;BMP180;62667;48.698;8.762;2023-08-12T01:23:13;96345.00;;;19.00
10869;BMP180;62667;48.698;8.762;2023-08-12T01:25:40;96336.00;;;19.10
10869;BMP180;62667;48.698;8.762;2023-08-12T01:28:08;96331.00;;;19.20
10869;BMP180;62667;48.698;8.762;2023-08-12T01:30:43;96347.00;;;19.20
10869;BMP180;62667;48.698;8.762;2023-08-12T01:33:21;96340.00;;;19.00
10869;BMP180;62667;48.698;8.762;2023-08-12T01:35:53;96326.00;;;19.00
10869;BMP180;62667;48.698;8.762;2023-08-12T01:38:25;96326.00;;;19.00
10869;BMP180;62667;48.698;8.762;2023-08-12T01:40:54;96329.00;;;19.00
10869;BMP180;62667;48.698;8.762;2023-08-12T01:43:22;96329.00;;;18.70
10869;BMP180;62667;48.698;8.762;2023-08-12T01:45:50;96340.00;;;18.80
10869;BMP180;62667;48.698;8.762;2023-08-12T01:48:17;96329.00;;;18.90
10869;BMP180;62667;48.698;8.762;2023-08-12T01:50:46;96331.00;;;19.00
10869;BMP180;62667;48.698;8.762;2023-08-12T01:53:14;96328.00;;;19.00
10869;BMP180;62667;48.698;8.762;2023-08-12T01:55:44;96338.00;;;19.10
10869;BMP180;62667;48.698;8.762;2023-08-12T01:58:11;96339.00;;;19.20
10869;BMP180;62667;48.698;8.762;2023-08-12T02:00:39;96334.00;;;19.30
10869;BMP180;62667;48.698;8.762;2023-08-12T02:03:06;96340.00;;;19.40
10869;BMP180;62667;48.698;8.762;2023-08-12T02:05:33;96327.00;;;19.40
10869;BMP180;62667;48.698;8.762;2023-08-12T02:08:05;96328.00;;;19.40
10869;BMP180;62667;48.698;8.762;2023-08-12T02:10:32;96320.00;;;19.30
10869;BMP180;62667;48.698;8.762;2023-08-12T02:13:01;96318.00;;;19.40
10869;BMP180;62667;48.698;8.762;2023-08-12T02:15:29;96323.00;;;19.40
10869;BMP180;62667;48.698;8.762;2023-08-12T02:17:56;96320.00;;;19.20
10869;BMP180;62667;48.698;8.762;2023-08-12T02:20:25;96313.00;;;19.20
10869;BMP180;62667;48.698;8.762;2023-08-12T02:22:52;96313.00;;;19.10
10869;BMP180;62667;48.698;8.762;2023-08-12T02:25:20;96319.00;;;19.00
10869;BMP180;62667;48.698;8.762;2023-08-12T02:27:47;96319.00;;;19.10
10869;BMP180;62667;48.698;8.762;2023-08-12T02:30:16;96315.00;;;19.10
10869;BMP180;62667;48.698;8.762;2023-08-12T02:32:43;96312.00;;;19.10
10869;BMP180;62667;48.698;8.762;2023-08-12T02:35:12;96306.00;;;18.90
10869;BMP180;62667;48.698;8.762;2023-08-12T02:37:39;96304.00;;;18.90
10869;BMP180;62667;48.698;8.762;2023-08-12T02:40:08;96305.00;;;18.90
10869;BMP180;62667;48.698;8.762;2023-08-12T02:42:36;96292.00;;;18.90
10869;BMP180;62667;48.698;8.762;2023-08-12T02:45:04;96296.00;;;19.00
10869;BMP180;62667;48.698;8.762;2023-08-12T02:47:33;96295.00;;;18.90
10869;BMP180;62667;48.698;8.762;2023-08-12T02:50:01;96296.00;;;18.90
10869;BMP180;62667;48.698;8.762;2023-08-12T02:52:28;96298.00;;;18.90
10869;BMP180;62667;48.698;8.762;2023-08-12T02:54:55;96295.00;;;18.80
10869;BMP180;62667;48.698;8.762;2023-08-12T02:57:23;96292.00;;;18.80
10869;BMP180;62667;48.698;8.762;2023-08-12T02:59:51;96290.00;;;18.80
10869;BMP180;62667;48.698;8.762;2023-08-12T03:02:18;96291.00;;;18.90
10869;BMP180;62667;48.698;8.762;2023-08-12T03:04:47;96279.00;;;18.90
10869;BMP180;62667;48.698;8.762;2023-08-12T03:07:14;96271.00;;;18.80
10869;BMP180;62667;48.698;8.762;2023-08-12T03:09:41;96270.00;;;18.80
10869;BMP180;62667;48.698;8.762;2023-08-12T03:12:09;96271.00;;;18.80
10869;BMP180;62667;48.698;8.762;2023-08-12T03:14:36;96264.00;;;18.70
10869;BMP180;62667;48.698;8.762;2023-08-12T03:17:03;96274.00;;;18.70
10869;BMP180;62667;48.698;8.762;2023-08-12T03:19:31;96274.00;;;18.70
10869;BMP180;62667;48.698;8.762;2023-08-12T03:22:00;96269.00;;;18.70
10869;BMP180;62667;48.698;8.762;2023-08-12T03:24:27;96281.00;;;18.80
10869;BMP180;62667;48.698;8.762;2023-08-12T03:26:54;96274.00;;;18.80
10869;BMP180;62667;48.698;8.762;2023-08-12T03:29:22;96269.00;;;18.80
10869;BMP180;62667;48.698;8.762;2023-08-12T03:31:49;96269.00;;;18.80
10869;BMP180;62667;48.698;8.762;2023-08-12T03:34:16;96270.00;;;18.80
10869;BMP180;62667;48.698;8.762;2023-08-12T03:36:43;96274.00;;;18.80
10869;BMP180;62667;48.698;8.762;2023-08-12T03:39:13;96268.00;;;18.80
10869;BMP180;62667;48.698;8.762;2023-08-12T03:41:40;96264.00;;;18.70
10869;BMP180;62667;48.698;8.762;2023-08-12T03:44:08;96267.00;;;18.70
10869;BMP180;62667;48.698;8.762;2023-08-12T03:46:35;96256.00;;;18.80
10869;BMP180;62667;48.698;8.762;2023-08-12T03:49:03;96259.00;;;18.80
10869;BMP180;62667;48.698;8.762;2023-08-12T03:51:30;96261.00;;;18.70
10869;BMP180;62667;48.698;8.762;2023-08-12T03:53:57;96265.00;;;18.70
10869;BMP180;62667;48.698;8.762;2023-08-12T03:56:26;96265.00;;;18.70
10869;BMP180;62667;48.698;8.762;2023-08-12T03:58:54;96273.00;;;18.70
10869;BMP180;62667;48.698;8.762;2023-08-12T04:01:21;96279.00;;;18.70
10869;BMP180;62667;48.698;8.762;2023-08-12T04:03:49;96269.00;;;18.80
10869;BMP180;62667;48.698;8.762;2023-08-12T04:06:16;96263.00;;;18.80
10869;BMP180;62667;48.698;8.762;2023-08-12T04:08:43;96272.00;;;18.90
10869;BMP180;62667;48.698;8.762;2023-08-12T04:11:11;96272.00;;;18.90
10869;BMP180;62667;48.698;8.762;2023-08-12T04:13:39;96258.00;;;18.90
10869;BMP180;62667;48.698;8.762;2023-08-12T04:16:07;96263.00;;;19.00
10869;BMP180;62667;48.698;8.762;2023-08-12T04:18:34;96273.00;;;18.90
10869;BMP180;62667;48.698;8.762;2023-08-12T04:21:02;96277.00;;;18.90
10869;BMP180;62667;48.698;8.762;2023-08-12T04:23:29;96274.00;;;18.90
10869;BMP180;62667;48.698;8.762;2023-08-12T04:25:56;96275.00;;;18.70
10869;BMP180;62667;48.698;8.762;2023-08-12T04:28:24;96273.00;;;18.70
10869;BMP180;62667;48.698;8.762;2023-08-12T04:30:53;96275.00;;;18.80
10869;BMP180;62667;48.698;8.762;2023-08-12T04:33:20;96274.00;;;18.80
10869;BMP180;62667;48.698;8.762;2023-08-12T04:35:47;96267.00;;;18.80
10869;BMP180;62667;48.698;8.762;2023-08-12T04:38:15;96266.00;;;18.70
10869;BMP180;62667;48.698;8.762;2023-08-12T04:40:42;96259.00;;;18.80
10869;BMP180;62667;48.698;8.762;2023-08-12T04:43:10;96266.00;;;18.90
10869;BMP180;62667;48.698;8.762;2023-08-12T04:45:39;96259.00;;;18.90
10869;BMP180;62667;48.698;8.762;2023-08-12T04:48:08;96254.00;;;18.90
10869;BMP180;62667;48.698;8.762;2023-08-12T04:50:37;96250.00;;;18.90
10869;BMP180;62667;48.698;8.762;2023-08-12T04:53:04;96259.00;;;18.90
10869;BMP180;62667;48.698;8.762;2023-08-12T04:55:32;96259.00;;;18.90
10869;BMP180;62667;48.698;8.762;2023-08-12T04:58:00;96246.00;;;18.90
10869;BMP180;62667;48.698;8.762;2023-08-12T05:00:28;96259.00;;;18.90
10869;BMP180;62667;48.698;8.762;2023-08-12T05:02:56;96259.00;;;18.90
10869;BMP180;62667;48.698;8.762;2023-08-12T05:05:26;96262.00;;;18.40
10869;BMP180;62667;48.698;8.762;2023-08-12T05:07:53;96258.00;;;18.40
10869;BMP180;62667;48.698;8.762;2023-08-12T05:10:20;96254.00;;;18.60
10869;BMP180;62667;48.698;8.762;2023-08-12T05:12:48;96252.00;;;18.70
10869;BMP180;62667;48.698;8.762;2023-08-12T05:15:16;96252.00;;;18.90
10869;BMP180;62667;48.698;8.762;2023-08-12T05:17:44;96244.00;;;19.00
10869;BMP180;62667;48.698;8.762;2023-08-12T05:20:11;96248.00;;;19.00
10869;BMP180;62667;48.698;8.762;2023-08-12T05:22:40;96248.00;;;19.00
10869;BMP180;62667;48.698;8.762;2023-08-12T05:25:08;96253.00;;;19.10
10869;BMP180;62667;48.698;8.762;2023-08-12T05:27:35;96246.00;;;19.10
10869;BMP180;62667;48.698;8.762;2023-08-12T05:30:03;96253.00;;;19.20
10869;BMP180;62667;48.698;8.762;2023-08-12T05:32:31;96250.00;;;19.20
10869;BMP180;62667;48.698;8.762;2023-08-12T05:34:58;96259.00;;;19.20
10869;BMP180;62667;48.698;8.762;2023-08-12T05:37:26;96258.00;;;19.30
10869;BMP180;62667;48.698;8.762;2023-08-12T05:39:54;96257.00;;;19.30
10869;BMP180;62667;48.698;8.762;2023-08-12T05:42:22;96248.00;;;19.40
10869;BMP180;62667;48.698;8.762;2023-08-12T05:44:49;96255.00;;;19.40
10869;BMP180;62667;48.698;8.762;2023-08-12T05:47:17;96252.00;;;19.50
10869;BMP180;62667;48.698;8.762;2023-08-12T05:49:44;96252.00;;;19.60
10869;BMP180;62667;48.698;8.762;2023-08-12T05:52:11;96248.00;;;19.60
10869;BMP180;62667;48.698;8.762;2023-08-12T05:54:39;96246.00;;;19.60
10869;BMP180;62667;48.698;8.762;2023-08-12T05:57:07;96254.00;;;19.80
10869;BMP180;62667;48.698;8.762;2023-08-12T05:59:35;96251.00;;;19.90
10869;BMP180;62667;48.698;8.762;2023-08-12T06:02:02;96252.00;;;19.90
10869;BMP180;62667;48.698;8.762;2023-08-12T06:04:30;96241.00;;;20.10
10869;BMP180;62667;48.698;8.762;2023-08-12T06:06:57;96247.00;;;20.10
10869;BMP180;62667;48.698;8.762;2023-08-12T06:09:25;96240.00;;;20.20
10869;BMP180;62667;48.698;8.762;2023-08-12T06:11:52;96245.00;;;20.30
10869;BMP180;62667;48.698;8.762;2023-08-12T06:14:21;96238.00;;;20.50
10869;BMP180;62667;48.698;8.762;2023-08-12T06:16:48;96239.00;;;20.40
10869;BMP180;62667;48.698;8.762;2023-08-12T06:19:15;96246.00;;;20.60
10869;BMP180;62667;48.698;8.762;2023-08-12T06:21:43;96248.00;;;20.70
10869;BMP180;62667;48.698;8.762;2023-08-12T06:24:10;96255.00;;;20.90
10869;BMP180;62667;48.698;8.762;2023-08-12T06:26:38;96247.00;;;20.90
10869;BMP180;62667;48.698;8.762;2023-08-12T06:29:05;96236.00;;;21.00
10869;BMP180;62667;48.698;8.762;2023-08-12T06:31:34;96248.00;;;21.10
10869;BMP180;62667;48.698;8.762;2023-08-12T06:34:01;96246.00;;;21.20
10869;BMP180;62667;48.698;8.762;2023-08-12T06:36:29;96253.00;;;21.20
10869;BMP180;62667;48.698;8.762;2023-08-12T06:38:56;96240.00;;;21.20
10869;BMP180;62667;48.698;8.762;2023-08-12T06:41:24;96248.00;;;21.30
10869;BMP180;62667;48.698;8.762;2023-08-12T06:43:51;96242.00;;;21.40
10869;BMP180;62667;48.698;8.762;2023-08-12T06:46:18;96239.00;;;21.50
10869;BMP180;62667;48.698;8.762;2023-08-12T06:48:47;96233.00;;;21.60
10869;BMP180;62667;48.698;8.762;2023-08-12T06:51:17;96243.00;;;21.70
10869;BMP180;62667;48.698;8.762;2023-08-12T06:53:44;96237.00;;;21.70
10869;BMP180;62667;48.698;8.762;2023-08-12T06:56:11;96227.00;;;21.60
10869;BMP180;62667;48.698;8.762;2023-08-12T06:58:39;96240.00;;;21.80
10869;BMP180;62667;48.698;8.762;2023-08-12T07:01:06;96242.00;;;22.00
10869;BMP180;62667;48.698;8.762;2023-08-12T07:03:34;96237.00;;;21.90
10869;BMP180;62667;48.698;8.762;2023-08-12T07:06:02;96243.00;;;22.10
10869;BMP180;62667;48.698;8.762;2023-08-12T07:08:30;96249.00;;;22.20
10869;BMP180;62667;48.698;8.762;2023-08-12T07:10:58;96244.00;;;22.30
10869;BMP180;62667;48.698;8.762;2023-08-12T07:13:25;96237.00;;;22.40
10869;BMP180;62667;48.698;8.762;2023-08-12T07:15:53;96238.00;;;22.50
10869;BMP180;62667;48.698;8.762;2023-08-12T07:18:20;96238.00;;;22.70
10869;BMP180;62667;48.698;8.762;2023-08-12T07:20:49;96229.00;;;22.90
10869;BMP180;62667;48.698;8.762;2023-08-12T07:23:18;96218.00;;;23.10
10869;BMP180;62667;48.698;8.762;2023-08-12T07:25:46;96220.00;;;23.40
10869;BMP180;62667;48.698;8.762;2023-08-12T07:28:13;96220.00;;;23.60
10869;BMP180;62667;48.698;8.762;2023-08-12T07:30:41;96223.00;;;23.90
10869;BMP180;62667;48.698;8.762;2023-08-12T07:33:08;96219.00;;;24.00
10869;BMP180;62667;48.698;8.762;2023-08-12T07:35:36;96211.00;;;24.20
10869;BMP180;62667;48.698;8.762;2023-08-12T07:38:03;96206.00;;;24.40
10869;BMP180;62667;48.698;8.762;2023-08-12T07:40:32;96216.00;;;24.70
10869;BMP180;62667;48.698;8.762;2023-08-12T07:43:00;96219.00;;;24.60
10869;BMP180;62667;48.698;8.762;2023-08-12T07:45:27;96218.00;;;24.50
10869;BMP180;62667;48.698;8.762;2023-08-12T07:47:54;96222.00;;;24.70
10869;BMP180;62667;48.698;8.762;2023-08-12T07:50:22;96229.00;;;24.70
10869;BMP180;62667;48.698;8.762;2023-08-12T07:52:49;96227.00;;;24.90
10869;BMP180;62667;48.698;8.762;2023-08-12T07:55:18;96228.00;;;25.00
10869;BMP180;62667;48.698;8.762;2023-08-12T07:57:46;96235.00;;;25.20
10869;BMP180;62667;48.698;8.762;2023-08-12T08:00:14;96230.00;;;25.10
10869;BMP180;62667;48.698;8.762;2023-08-12T08:02:41;96219.00;;;25.10
10869;BMP180;62667;48.698;8.762;2023-08-12T08:05:08;96233.00;;;25.20
10869;BMP180;62667;48.698;8.762;2023-08-12T08:07:36;96222.00;;;25.10
10869;BMP180;62667;48.698;8.762;2023-08-12T08:10:03;96219.00;;;25.40
10869;BMP180;62667;48.698;8.762;2023-08-12T08:12:31;96227.00;;;25.60
10869;BMP180;62667;48.698;8.762;2023-08-12T08:15:00;96219.00;;;25.60
10869;BMP180;62667;48.698;8.762;2023-08-12T08:17:29;96215.00;;;25.70
10869;BMP180;62667;48.698;8.762;2023-08-12T08:19:56;96207.00;;;25.80
10869;BMP180;62667;48.698;8.762;2023-08-12T08:22:24;96221.00;;;25.90
10869;BMP180;62667;48.698;8.762;2023-08-12T08:24:51;96214.00;;;25.90
10869;BMP180;62667;48.698;8.762;2023-08-12T08:27:18;96217.00;;;26.00
10869;BMP180;62667;48.698;8.762;2023-08-12T08:29:46;96219.00;;;26.30
10869;BMP180;62667;48.698;8.762;2023-08-12T08:32:15;96215.00;;;26.30
10869;BMP180;62667;48.698;8.762;2023-08-12T08:34:42;96223.00;;;26.30
10869;BMP180;62667;48.698;8.762;2023-08-12T08:37:10;96212.00;;;26.30
10869;BMP180;62667;48.698;8.762;2023-08-12T08:39:37;96215.00;;;26.40
10869;BMP180;62667;48.698;8.762;2023-08-12T08:42:06;96212.00;;;26.60
10869;BMP180;62667;48.698;8.762;2023-08-12T08:44:34;96218.00;;;26.90
10869;BMP180;62667;48.698;8.762;2023-08-12T08:47:01;96221.00;;;26.90
10869;BMP180;62667;48.698;8.762;2023-08-12T08:49:32;96229.00;;;26.40
10869;BMP180;62667;48.698;8.762;2023-08-12T08:52:00;96217.00;;;26.30
10869;BMP180;62667;48.698;8.762;2023-08-12T08:54:28;96218.00;;;26.70
10869;BMP180;62667;48.698;8.762;2023-08-12T08:56:55;96228.00;;;26.80
10869;BMP180;62667;48.698;8.762;2023-08-12T08:59:23;96227.00;;;26.80
10869;BMP180;62667;48.698;8.762;2023-08-12T09:01:50;96234.00;;;26.90
10869;BMP180;62667;48.698;8.762;2023-08-12T09:04:20;96233.00;;;26.60
10869;BMP180;62667;48.698;8.762;2023-08-12T09:06:50;96235.00;;;26.80
10869;BMP180;62667;48.698;8.762;2023-08-12T09:09:21;96231.00;;;27.00
10869;BMP180;62667;48.698;8.762;2023-08-12T09:11:50;96232.00;;;26.60
10869;BMP180;62667;48.698;8.762;2023-08-12T09:14:19;96249.00;;;26.50
10869;BMP180;62667;48.698;8.762;2023-08-12T09:16:47;96242.00;;;26.60
10869;BMP180;62667;48.698;8.762;2023-08-12T09:19:15;96243.00;;;26.80
10869;BMP180;62667;48.698;8.762;2023-08-12T09:21:42;96232.00;;;26.50
10869;BMP180;62667;48.698;8.762;2023-08-12T09:24:13;96213.00;;;26.60
10869;BMP180;62667;48.698;8.762;2023-08-12T09:26:43;96213.00;;;26.60
10869;BMP180;62667;48.698;8.762;2023-08-12T09:29:11;96219.00;;;26.70
10869;BMP180;62667;48.698;8.762;2023-08-12T09:31:38;96215.00;;;26.70
10869;BMP180;62667;48.698;8.762;2023-08-12T09:34:06;96217.00;;;26.90
10869;BMP180;62667;48.698;8.762;2023-08-12T09:36:34;96220.00;;;27.10
10869;BMP180;62667;48.698;8.762;2023-08-12T09:39:06;96227.00;;;26.90
10869;BMP180;62667;48.698;8.762;2023-08-12T09:41:37;96247.00;;;27.10
10869;BMP180;62667;48.698;8.762;2023-08-12T09:44:05;96239.00;;;27.00
10869;BMP180;62667;48.698;8.762;2023-08-12T09:46:33;96246.00;;;26.80
10869;BMP180;62667;48.698;8.762;2023-08-12T09:49:01;96241.00;;;27.00
10869;BMP180;62667;48.698;8.762;2023-08-12T09:51:35;96231.00;;;27.20
10869;BMP180;62667;48.698;8.762;2023-08-12T09:54:03;96220.00;;;27.30
10869;BMP180;62667;48.698;8.762;2023-08-12T09:56:36;96234.00;;;27.20
10869;BMP180;62667;48.698;8.762;2023-08-12T09:59:06;96220.00;;;26.80
10869;BMP180;62667;48.698;8.762;2023-08-12T10:01:34;96217.00;;;26.90
10869;BMP180;62667;48.698;8.762;2023-08-12T10:04:02;96209.00;;;26.70
10869;BMP180;62667;48.698;8.762;2023-08-12T10:06:33;96210.00;;;27.00
10869;BMP180;62667;48.698;8.762;2023-08-12T10:09:01;96203.00;;;27.10
10869;BMP180;62667;48.698;8.762;2023-08-12T10:11:29;96196.00;;;27.40
10869;BMP180;62667;48.698;8.762;2023-08-12T10:13:58;96201.00;;;27.70
10869;BMP180;62667;48.698;8.762;2023-08-12T10:16:27;96196.00;;;27.70
10869;BMP180;62667;48.698;8.762;2023-08-12T10:18:56;96200.00;;;28.00
10869;BMP180;62667;48.698;8.762;2023-08-12T10:21:25;96195.00;;;28.10
10869;BMP180;62667;48.698;8.762;2023-08-12T10:23:54;96197.00;;;27.90
10869;BMP180;62667;48.698;8.762;2023-08-12T10:26:23;96188.00;;;28.20
10869;BMP180;62667;48.698;8.762;2023-08-12T10:28:51;96195.00;;;28.30
10869;BMP180;62667;48.698;8.762;2023-08-12T10:31:20;96202.00;;;28.70
10869;BMP180;62667;48.698;8.762;2023-08-12T10:33:48;96193.00;;;28.90
10869;BMP180;62667;48.698;8.762;2023-08-12T10:36:16;96207.00;;;28.80
10869;BMP180;62667;48.698;8.762;2023-08-12T10:38:45;96219.00;;;28.10
10869;BMP180;62667;48.698;8.762;2023-08-12T10:41:17;96206.00;;;27.90
10869;BMP180;62667;48.698;8.762;2023-08-12T10:43:54;96211.00;;;28.40
10869;BMP180;62667;48.698;8.762;2023-08-12T10:46:28;96202.00;;;28.40
10869;BMP180;62667;48.698;8.762;2023-08-12T10:49:02;96222.00;;;28.00
10869;BMP180;62667;48.698;8.762;2023-08-12T10:51:40;96218.00;;;27.80
10869;BMP180;62667;48.698;8.762;2023-08-12T10:54:14;96213.00;;;27.80
10869;BMP180;62667;48.698;8.762;2023-08-12T10:57:07;96234.00;;;27.40
10869;BMP180;62667;48.698;8.762;2023-08-12T10:59:52;96228.00;;;27.30
10869;BMP180;62667;48.698;8.762;2023-08-12T11:02:26;96227.00;;;27.50
10869;BMP180;62667;48.698;8.762;2023-08-12T11:04:55;96222.00;;;27.60
10869;BMP180;62667;48.698;8.762;2023-08-12T11:07:38;96219.00;;;27.40
10869;BMP180;62667;48.698;8.762;2023-08-12T11:10:11;96220.00;;;27.80
10869;BMP180;62667;48.698;8.762;2023-08-12T11:12:40;96220.00;;;27.80
10869;BMP180;62667;48.698;8.762;2023-08-12T11:15:08;96227.00;;;28.00
10869;BMP180;62667;48.698;8.762;2023-08-12T11:17:39;96215.00;;;27.80
10869;BMP180;62667;48.698;8.762;2023-08-12T11:20:11;96202.00;;;27.90
10869;BMP180;62667;48.698;8.762;2023-08-12T11:22:39;96176.00;;;28.30
10869;BMP180;62667;48.698;8.762;2023-08-12T11:25:08;96172.00;;;28.80
10869;BMP180;62667;48.698;8.762;2023-08-12T11:27:43;96182.00;;;29.40
10869;BMP180;62667;48.698;8.762;2023-08-12T11:30:12;96179.00;;;28.70
10869;BMP180;62667;48.698;8.762;2023-08-12T11:32:43;96184.00;;;28.50
10869;BMP180;62667;48.698;8.762;2023-08-12T11:35:12;96204.00;;;28.20
10869;BMP180;62667;48.698;8.762;2023-08-12T11:37:41;96194.00;;;28.20
10869;BMP180;62667;48.698;8.762;2023-08-12T11:40:09;96191.00;;;27.90
10869;BMP180;62667;48.698;8.762;2023-08-12T11:42:38;96193.00;;;27.70
10869;BMP180;62667;48.698;8.762;2023-08-12T11:45:07;96204.00;;;27.60
10869;BMP180;62667;48.698;8.762;2023-08-12T11:47:35;96228.00;;;27.40
10869;BMP180;62667;48.698;8.762;2023-08-12T11:50:05;96252.00;;;26.90
10869;BMP180;62667;48.698;8.762;2023-08-12T11:52:34;96284.00;;;24.50
10869;BMP180;62667;48.698;8.762;2023-08-12T11:55:03;96306.00;;;22.40
10869;BMP180;62667;48.698;8.762;2023-08-12T11:57:31;96328.00;;;21.90
10869;BMP180;62667;48.698;8.762;2023-08-12T12:00:01;96295.00;;;22.10
10869;BMP180;62667;48.698;8.762;2023-08-12T12:02:30;96301.00;;;22.30
10869;BMP180;62667;48.698;8.762;2023-08-12T12:04:58;96297.00;;;22.10
10869;BMP180;62667;48.698;8.762;2023-08-12T12:07:26;96295.00;;;22.10
10869;BMP180;62667;48.698;8.762;2023-08-12T12:09:56;96276.00;;;22.30
10869;BMP180;62667;48.698;8.762;2023-08-12T12:12:24;96288.00;;;22.20
10869;BMP180;62667;48.698;8.762;2023-08-12T12:14:52;96288.00;;;21.90
10869;BMP180;62667;48.698;8.762;2023-08-12T12:17:21;96288.00;;;22.00
10869;BMP180;62667;48.698;8.762;2023-08-12T12:19:53;96276.00;;;22.00
10869;BMP180;62667;48.698;8.762;2023-08-12T12:22:28;96278.00;;;22.00
10869;BMP180;62667;48.698;8.762;2023-08-12T12:25:05;96271.00;;;21.90
10869;BMP180;62667;48.698;8.762;2023-08-12T12:27:33;96248.00;;;22.40
10869;BMP180;62667;48.698;8.762;2023-08-12T12:30:00;96269.00;;;22.80
10869;BMP180;62667;48.698;8.762;2023-08-12T12:32:28;96272.00;;;23.10
10869;BMP180;62667;48.698;8.762;2023-08-12T12:34:55;96276.00;;;23.60
10869;BMP180;62667;48.698;8.762;2023-08-12T12:37:23;96288.00;;;23.90
10869;BMP180;62667;48.698;8.762;2023-08-12T12:39:51;96293.00;;;23.70
10869;BMP180;62667;48.698;8.762;2023-08-12T12:42:19;96293.00;;;24.10
10869;BMP180;62667;48.698;8.762;2023-08-12T12:44:46;96294.00;;;24.30
10869;BMP180;62667;48.698;8.762;2023-08-12T12:47:14;96312.00;;;24.60
10869;BMP180;62667;48.698;8.762;2023-08-12T12:49:41;96309.00;;;24.70
10869;BMP180;62667;48.698;8.762;2023-08-12T12:52:09;96311.00;;;24.90
10869;BMP180;62667;48.698;8.762;2023-08-12T12:54:36;96307.00;;;25.10
10869;BMP180;62667;48.698;8.762;2023-08-12T12:57:06;96305.00;;;25.10
10869;BMP180;62667;48.698;8.762;2023-08-12T12:59:33;96297.00;;;25.30
10869;BMP180;62667;48.698;8.762;2023-08-12T13:02:01;96293.00;;;25.50
10869;BMP180;62667;48.698;8.762;2023-08-12T13:04:28;96290.00;;;25.50
10869;BMP180;62667;48.698;8.762;2023-08-12T13:06:56;96263.00;;;25.60
10869;BMP180;62667;48.698;8.762;2023-08-12T13:09:23;96261.00;;;25.30
10869;BMP180;62667;48.698;8.762;2023-08-12T13:11:51;96261.00;;;26.00
10869;BMP180;62667;48.698;8.762;2023-08-12T13:14:19;96259.00;;;26.00
10869;BMP180;62667;48.698;8.762;2023-08-12T13:16:47;96252.00;;;26.30
10869;BMP180;62667;48.698;8.762;2023-08-12T13:19:15;96239.00;;;27.40
10869;BMP180;62667;48.698;8.762;2023-08-12T13:21:42;96254.00;;;27.10
10869;BMP180;62667;48.698;8.762;2023-08-12T13:24:09;96263.00;;;26.80
10869;BMP180;62667;48.698;8.762;2023-08-12T13:26:37;96255.00;;;26.90
10869;BMP180;62667;48.698;8.762;2023-08-12T13:29:04;96256.00;;;27.10
10869;BMP180;62667;48.698;8.762;2023-08-12T13:31:33;96267.00;;;26.50
10869;BMP180;62667;48.698;8.762;2023-08-12T13:34:00;96263.00;;;26.00
10869;BMP180;62667;48.698;8.762;2023-08-12T13:36:29;96263.00;;;25.90
10869;BMP180;62667;48.698;8.762;2023-08-12T13:38:56;96264.00;;;26.20
10869;BMP180;62667;48.698;8.762;2023-08-12T13:41:24;96262.00;;;26.30
10869;BMP180;62667;48.698;8.762;2023-08-12T13:43:51;96265.00;;;26.50
10869;BMP180;62667;48.698;8.762;2023-08-12T13:46:19;96262.00;;;26.50
10869;BMP180;62667;48.698;8.762;2023-08-12T13:48:47;96251.00;;;26.50
10869;BMP180;62667;48.698;8.762;2023-08-12T13:51:15;96248.00;;;27.10
10869;BMP180;62667;48.698;8.762;2023-08-12T13:53:42;96244.00;;;27.70
10869;BMP180;62667;48.698;8.762;2023-08-12T13:56:10;96232.00;;;28.00
10869;BMP180;62667;48.698;8.762;2023-08-12T13:58:37;96212.00;;;29.10
10869;BMP180;62667;48.698;8.762;2023-08-12T14:01:05;96207.00;;;30.10
10869;BMP180;62667;48.698;8.762;2023-08-12T14:03:32;96203.00;;;30.30
10869;BMP180;62667;48.698;8.762;2023-08-12T14:06:01;96197.00;;;30.20
10869;BMP180;62667;48.698;8.762;2023-08-12T14:08:29;96194.00;;;30.50
10869;BMP180;62667;48.698;8.762;2023-08-12T14:10:56;96191.00;;;30.10
10869;BMP180;62667;48.698;8.762;2023-08-12T14:13:24;96181.00;;;30.10
10869;BMP180;62667;48.698;8.762;2023-08-12T14:15:52;96181.00;;;30.60